^^
Datos históricos de la estación: Murcia-Puente Tocinos
Diario Informe para Julio 16, 2019 Unidades:  Ambas    Ingés   Métrico
Diario Semanal Mensual Anual
  Máxima: Mínima: Promedio:
Temperatura: 63.1 °F /  17.3 °C 45.1 °F /  7.3 °C 51.8 °F /  11 °C
Punto de rocio: 48.4 °F /  9.1 °C 41.7 °F /  5.4 °C 44.1 °F /  6.7 °C
Humedad: 89% 47% 76%
Velocidad viento: 5.9mph /  9.5km/h - 3.2mph /  5.1km/h
Racha viento: 9.2mph /  14.8km/h - -
Viento- - SSO
Presión: 30.1 in /  1020.2 hPa 30 in /  1014.8 hPa -
Precipitación: 0 in /  0.0 mm    
 
 
Tabla de datos para Julio 16, 2019
Hora Temperatura Punto de rocio Presión Viento Velocidad viento Racha viento Humedad Intensidad lluvia(por hora) Nubes
00:04 48.7 °F /  9.3 °C 44.8 °F /  7.1 °C 30.1in /  1020.2hPa Sur 2.9mph /  4.6km/h 5mph /  8km/h 86% 0in /  0.0mm
00:09 48.7 °F /  9.3 °C 44.6 °F /  7 °C 30.1in /  1020.1hPa Sur 3mph /  4.8km/h 5mph /  8km/h 86% 0in /  0.0mm
00:14 48.6 °F /  9.2 °C 44.6 °F /  7 °C 30.1in /  1020.1hPa Sur 3.1mph /  5km/h 5mph /  8km/h 86% 0in /  0.0mm
00:19 48.2 °F /  9 °C 44.2 °F /  6.8 °C 30.1in /  1020.1hPa Sur 3mph /  4.8km/h 5.9mph /  9.5km/h 86% 0in /  0.0mm
00:24 47.8 °F /  8.8 °C 44.1 °F /  6.7 °C 30.1in /  1020.1hPa Sur 2.9mph /  4.7km/h 6.2mph /  10km/h 86.5% 0in /  0.0mm
00:29 47.7 °F /  8.7 °C 44.1 °F /  6.7 °C 30.1in /  1020.1hPa Sur 3.5mph /  5.7km/h 6mph /  9.7km/h 87% 0in /  0.0mm
00:34 47.7 °F /  8.7 °C 43.9 °F /  6.6 °C 30.1in /  1020.1hPa Sur 4mph /  6.5km/h 6mph /  9.7km/h 87% 0in /  0.0mm
00:39 47.5 °F /  8.6 °C 43.9 °F /  6.6 °C 30.1in /  1020.0hPa Sur 3.5mph /  5.6km/h 5.2mph /  8.4km/h 87% 0in /  0.0mm
00:44 47.3 °F /  8.5 °C 43.7 °F /  6.5 °C 30.1in /  1020.0hPa Sur 3.1mph /  5km/h 5mph /  8km/h 87.1% 0in /  0.0mm
00:49 47.3 °F /  8.5 °C 43.9 °F /  6.6 °C 30.1in /  1020.0hPa Sur 3.1mph /  5km/h 5mph /  8km/h 88% 0in /  0.0mm
00:54 47.1 °F /  8.4 °C 43.7 °F /  6.5 °C 30.1in /  1020.0hPa Sur 3.1mph /  5km/h 5mph /  8km/h 88% 0in /  0.0mm
00:59 47.1 °F /  8.4 °C 43.7 °F /  6.5 °C 30.1in /  1020.0hPa Sur 3.1mph /  5km/h 5.8mph /  9.3km/h 88% 0in /  0.0mm
01:04 47.1 °F /  8.4 °C 43.7 °F /  6.5 °C 30.1in /  1020.0hPa Sur 3.1mph /  5km/h 6mph /  9.7km/h 88% 0in /  0.0mm
01:09 47.1 °F /  8.4 °C 43.7 °F /  6.5 °C 30.1in /  1019.9hPa Sur 3.1mph /  5km/h 5mph /  8km/h 88% 0in /  0.0mm
01:14 47.1 °F /  8.4 °C 43.7 °F /  6.5 °C 30.1in /  1019.9hPa Sur 3.1mph /  5km/h 5mph /  8km/h 88% 0in /  0.0mm
01:19 46.9 °F /  8.3 °C 43.5 °F /  6.4 °C 30.1in /  1019.9hPa Sur 2.3mph /  3.7km/h 4mph /  6.4km/h 87.3% 0in /  0.0mm
01:24 46.9 °F /  8.3 °C 43.3 °F /  6.3 °C 30.1in /  1019.8hPa Sur 1.8mph /  2.9km/h 4.6mph /  7.4km/h 87% 0in /  0.0mm
01:29 46.8 °F /  8.2 °C 43.2 °F /  6.2 °C 30.1in /  1019.8hPa Sur 1.8mph /  2.9km/h 5mph /  8km/h 87% 0in /  0.0mm
01:34 46.8 °F /  8.2 °C 43.2 °F /  6.2 °C 30.1in /  1019.8hPa Sur 1.8mph /  2.9km/h 5mph /  8km/h 87% 0in /  0.0mm
01:39 46.6 °F /  8.1 °C 43 °F /  6.1 °C 30.1in /  1019.6hPa Sur 2.2mph /  3.5km/h 5mph /  8km/h 87% 0in /  0.0mm
01:44 46.2 °F /  7.9 °C 42.6 °F /  5.9 °C 30.1in /  1019.6hPa Sur 2.4mph /  3.9km/h 4mph /  6.4km/h 87% 0in /  0.0mm
01:49 46 °F /  7.8 °C 42.6 °F /  5.9 °C 30.1in /  1019.6hPa Sur 2.4mph /  3.9km/h 4.6mph /  7.4km/h 87.4% 0in /  0.0mm
01:54 46 °F /  7.8 °C 42.6 °F /  5.9 °C 30.1in /  1019.5hPa Sur 2.4mph /  3.9km/h 5mph /  8km/h 88% 0in /  0.0mm
01:59 45.9 °F /  7.7 °C 42.6 °F /  5.9 °C 30.1in /  1019.5hPa Sur 2.4mph /  3.9km/h 4mph /  6.4km/h 88% 0in /  0.0mm
02:04 45.9 °F /  7.7 °C 42.4 °F /  5.8 °C 30.1in /  1019.5hPa Sur 2.4mph /  3.9km/h 5mph /  8km/h 88% 0in /  0.0mm
02:09 45.9 °F /  7.7 °C 42.4 °F /  5.8 °C 30.1in /  1019.5hPa Sur 2.7mph /  4.3km/h 5mph /  8km/h 88% 0in /  0.0mm
02:14 45.7 °F /  7.6 °C 42.3 °F /  5.7 °C 30.1in /  1019.5hPa Sur 2.9mph /  4.6km/h 5mph /  8km/h 88% 0in /  0.0mm
02:19 45.7 °F /  7.6 °C 42.6 °F /  5.9 °C 30.1in /  1019.5hPa Sur 2.9mph /  4.7km/h 5mph /  8km/h 88.9% 0in /  0.0mm
02:24 45.7 °F /  7.6 °C 42.6 °F /  5.9 °C 30.1in /  1019.4hPa SSO 2.9mph /  4.6km/h 5.2mph /  8.4km/h 89% 0in /  0.0mm
02:29 45.7 °F /  7.6 °C 42.4 °F /  5.8 °C 30.1in /  1019.4hPa SSO 3mph /  4.8km/h 6.2mph /  10km/h 89% 0in /  0.0mm
02:34 45.7 °F /  7.6 °C 42.6 °F /  5.9 °C 30.1in /  1019.4hPa SSO 3.1mph /  5km/h 6mph /  9.7km/h 89% 0in /  0.0mm
02:39 45.7 °F /  7.6 °C 42.6 °F /  5.9 °C 30.1in /  1019.4hPa SSO 3.6mph /  5.8km/h 6mph /  9.7km/h 89% 0in /  0.0mm
02:44 45.7 °F /  7.6 °C 42.6 °F /  5.9 °C 30.1in /  1019.4hPa Sur 4mph /  6.5km/h 6mph /  9.7km/h 89% 0in /  0.0mm
02:49 45.5 °F /  7.5 °C 42.4 °F /  5.8 °C 30.1in /  1019.5hPa Sur 3.8mph /  6.1km/h 6mph /  9.7km/h 89% 0in /  0.0mm
02:54 45.3 °F /  7.4 °C 42.3 °F /  5.7 °C 30.1in /  1019.5hPa Sur 3.6mph /  5.8km/h 6mph /  9.7km/h 89% 0in /  0.0mm
02:59 45.1 °F /  7.3 °C 42.1 °F /  5.6 °C 30.1in /  1019.5hPa SSO 3.9mph /  6.2km/h 6.9mph /  11.1km/h 89% 0in /  0.0mm
03:04 45.1 °F /  7.3 °C 42.1 °F /  5.6 °C 30.1in /  1019.5hPa SSO 4mph /  6.5km/h 7mph /  11.3km/h 89% 0in /  0.0mm
03:09 45.3 °F /  7.4 °C 42.3 °F /  5.7 °C 30.1in /  1019.5hPa SSO 4mph /  6.5km/h 6mph /  9.7km/h 89% 0in /  0.0mm
03:14 45.5 °F /  7.5 °C 42.4 °F /  5.8 °C 30.1in /  1019.5hPa SSO 4mph /  6.5km/h 6.2mph /  10km/h 89% 0in /  0.0mm
03:19 45.7 °F /  7.6 °C 42.6 °F /  5.9 °C 30.1in /  1019.5hPa SSO 3.8mph /  6.1km/h 6mph /  9.7km/h 89% 0in /  0.0mm
03:24 45.9 °F /  7.7 °C 42.6 °F /  5.9 °C 30.1in /  1019.5hPa SSO 3.6mph /  5.8km/h 6.2mph /  10km/h 88.5% 0in /  0.0mm
03:29 45.9 °F /  7.7 °C 42.4 °F /  5.8 °C 30.1in /  1019.5hPa SSO 3.6mph /  5.8km/h 6mph /  9.7km/h 88% 0in /  0.0mm
03:34 45.9 °F /  7.7 °C 42.4 °F /  5.8 °C 30.1in /  1019.5hPa Sur 3.6mph /  5.8km/h 6mph /  9.7km/h 88% 0in /  0.0mm
03:39 46 °F /  7.8 °C 42.6 °F /  5.9 °C 30.1in /  1019.5hPa SSO 3.6mph /  5.8km/h 6.9mph /  11.1km/h 88% 0in /  0.0mm
03:44 46 °F /  7.8 °C 42.8 °F /  6 °C 30.1in /  1019.5hPa SSO 3.6mph /  5.8km/h 7.4mph /  11.9km/h 88% 0in /  0.0mm
03:49 46.2 °F /  7.9 °C 43 °F /  6.1 °C 30.1in /  1019.5hPa SSO 4.2mph /  6.8km/h 7mph /  11.3km/h 88% 0in /  0.0mm
03:54 46.2 °F /  7.9 °C 43 °F /  6.1 °C 30.1in /  1019.4hPa SSO 4.7mph /  7.6km/h 7mph /  11.3km/h 88% 0in /  0.0mm
03:59 46.4 °F /  8 °C 42.8 °F /  6 °C 30.1in /  1019.4hPa SSO 4.7mph /  7.6km/h 7mph /  11.3km/h 87.2% 0in /  0.0mm
04:04 46.2 °F /  7.9 °C 42.6 °F /  5.9 °C 30.1in /  1019.4hPa SSO 4.7mph /  7.6km/h 6mph /  9.7km/h 87% 0in /  0.0mm
04:09 46 °F /  7.8 °C 42.4 °F /  5.8 °C 30.1in /  1019.4hPa SSO 4mph /  6.5km/h 6mph /  9.7km/h 87% 0in /  0.0mm
04:14 45.9 °F /  7.7 °C 42.3 °F /  5.7 °C 30.1in /  1019.4hPa SSO 3.6mph /  5.8km/h 6mph /  9.7km/h 87% 0in /  0.0mm
04:19 45.9 °F /  7.7 °C 42.1 °F /  5.6 °C 30.1in /  1019.4hPa Sur 3.6mph /  5.8km/h 6mph /  9.7km/h 87% 0in /  0.0mm
04:24 45.7 °F /  7.6 °C 41.9 °F /  5.5 °C 30.1in /  1019.4hPa Sur 3.6mph /  5.8km/h 5mph /  8km/h 87% 0in /  0.0mm
04:29 45.5 °F /  7.5 °C 41.9 °F /  5.5 °C 30.1in /  1019.4hPa Sur 3.2mph /  5.1km/h 5mph /  8km/h 87% 0in /  0.0mm
04:34 45.3 °F /  7.4 °C 41.7 °F /  5.4 °C 30.1in /  1019.4hPa Sur 2.9mph /  4.6km/h 5mph /  8km/h 87% 0in /  0.0mm
04:39 45.3 °F /  7.4 °C 41.7 °F /  5.4 °C 30.1in /  1019.2hPa Sur 2.6mph /  4.2km/h 5mph /  8km/h 87.3% 0in /  0.0mm
04:44 45.3 °F /  7.4 °C 42.1 °F /  5.6 °C 30.1in /  1019.2hPa Sur 2.4mph /  3.9km/h 5mph /  8km/h 88% 0in /  0.0mm
04:49 45.5 °F /  7.5 °C 42.3 °F /  5.7 °C 30.1in /  1019.2hPa Sur 2.4mph /  3.9km/h 5mph /  8km/h 88% 0in /  0.0mm
04:54 45.7 °F /  7.6 °C 42.3 °F /  5.7 °C 30.1in /  1019.1hPa Sur 2.4mph /  3.9km/h 3.5mph /  5.6km/h 88% 0in /  0.0mm
04:59 45.9 °F /  7.7 °C 42.4 °F /  5.8 °C 30.1in /  1019.1hPa Sur 2.1mph /  3.4km/h 4.6mph /  7.4km/h 88% 0in /  0.0mm
05:04 46 °F /  7.8 °C 42.6 °F /  5.9 °C 30.1in /  1019.1hPa SO 2mph /  3.2km/h 5mph /  8km/h 88% 0in /  0.0mm
05:09 46 °F /  7.8 °C 42.8 °F /  6 °C 30.1in /  1019.0hPa SO 2.2mph /  3.6km/h 5mph /  8km/h 88% 0in /  0.0mm
05:14 46.2 °F /  7.9 °C 42.6 °F /  5.9 °C 30.1in /  1019.0hPa SO 2.4mph /  3.9km/h 4mph /  6.4km/h 87.2% 0in /  0.0mm
05:19 46.2 °F /  7.9 °C 42.6 °F /  5.9 °C 30.1in /  1019.0hPa SO 1.8mph /  2.9km/h 2mph /  3.2km/h 87% 0in /  0.0mm
05:24 46.2 °F /  7.9 °C 42.6 °F /  5.9 °C 30.1in /  1018.9hPa SO 1.4mph /  2.2km/h   87% 0in /  0.0mm
05:29 46.2 °F /  7.9 °C 42.6 °F /  5.9 °C 30.1in /  1018.9hPa SO 0.6mph /  0.9km/h   87% 0in /  0.0mm
05:34 46.4 °F /  8 °C 42.6 °F /  5.9 °C 30.1in /  1018.9hPa Calm     87% 0in /  0.0mm
05:39 46.2 °F /  7.9 °C 42.4 °F /  5.8 °C 30.1in /  1018.9hPa Calm     86.2% 0in /  0.0mm
05:44 46 °F /  7.8 °C 42.1 °F /  5.6 °C 30.1in /  1018.9hPa Calm   2.9mph /  4.7km/h 86% 0in /  0.0mm
05:49 45.9 °F /  7.7 °C 41.9 °F /  5.5 °C 30.1in /  1018.9hPa SO 0.8mph /  1.3km/h 3.6mph /  5.8km/h 86% 0in /  0.0mm
05:54 45.7 °F /  7.6 °C 41.7 °F /  5.4 °C 30.1in /  1018.7hPa SO 1.4mph /  2.2km/h 4mph /  6.4km/h 86.2% 0in /  0.0mm
05:59 45.5 °F /  7.5 °C 41.9 °F /  5.5 °C 30.1in /  1018.7hPa SO 1.8mph /  2.9km/h 3mph /  4.8km/h 87% 0in /  0.0mm
06:04 45.5 °F /  7.5 °C 41.9 °F /  5.5 °C 30.1in /  1018.7hPa SO 2mph /  3.2km/h 3.6mph /  5.8km/h 87% 0in /  0.0mm
06:09 45.5 °F /  7.5 °C 41.9 °F /  5.5 °C 30.1in /  1018.7hPa SSE 2.2mph /  3.6km/h 4.7mph /  7.6km/h 87% 0in /  0.0mm
06:14 45.5 °F /  7.5 °C 41.9 °F /  5.5 °C 30.1in /  1018.7hPa SSE 2.4mph /  3.9km/h 6.2mph /  10km/h 87.1% 0in /  0.0mm
06:19 45.3 °F /  7.4 °C 42.1 °F /  5.6 °C 30.1in /  1018.7hPa SSE 3mph /  4.9km/h 6mph /  9.7km/h 87.9% 0in /  0.0mm
06:24 45.3 °F /  7.4 °C 41.9 °F /  5.5 °C 30.1in /  1018.7hPa SSE 3.6mph /  5.8km/h 6.2mph /  10km/h 88% 0in /  0.0mm
06:29 45.1 °F /  7.3 °C 41.7 °F /  5.4 °C 30.1in /  1018.7hPa SSE 3.8mph /  6.1km/h 6mph /  9.7km/h 88% 0in /  0.0mm
06:34 45.1 °F /  7.3 °C 41.9 °F /  5.5 °C 30.1in /  1018.7hPa SSE 4mph /  6.5km/h 6mph /  9.7km/h 88.6% 0in /  0.0mm
06:39 45.1 °F /  7.3 °C 42.1 °F /  5.6 °C 30.1in /  1018.7hPa SSE 3.8mph /  6.1km/h 6.2mph /  10km/h 89% 0in /  0.0mm
06:44 45.3 °F /  7.4 °C 42.3 °F /  5.7 °C 30.1in /  1018.7hPa SSE 3.6mph /  5.8km/h 6mph /  9.7km/h 89% 0in /  0.0mm
06:49 45.3 °F /  7.4 °C 42.1 °F /  5.6 °C 30.1in /  1018.7hPa SSE 4mph /  6.4km/h 6.4mph /  10.3km/h 88.1% 0in /  0.0mm
06:54 45.3 °F /  7.4 °C 42.3 °F /  5.7 °C 30.1in /  1018.7hPa Sur 4.3mph /  6.9km/h 7mph /  11.3km/h 88.8% 0in /  0.0mm
06:59 45.3 °F /  7.4 °C 42.4 °F /  5.8 °C 30.1in /  1018.7hPa Sur 4.1mph /  6.6km/h 6.2mph /  10km/h 89% 0in /  0.0mm
07:04 45.7 °F /  7.6 °C 42.6 °F /  5.9 °C 30.1in /  1018.7hPa Sur 4mph /  6.5km/h 6mph /  9.7km/h 89% 0in /  0.0mm
07:09 45.9 °F /  7.7 °C 42.4 °F /  5.8 °C 30.1in /  1018.7hPa SSO 4mph /  6.5km/h 6mph /  9.7km/h 88.1% 0in /  0.0mm
07:14 45.9 °F /  7.7 °C 42.4 °F /  5.8 °C 30.1in /  1018.7hPa SSO 4mph /  6.5km/h 6mph /  9.7km/h 88% 0in /  0.0mm
07:19 46 °F /  7.8 °C 42.6 °F /  5.9 °C 30.1in /  1018.8hPa SSO 3.5mph /  5.6km/h 6mph /  9.7km/h 88% 0in /  0.0mm
07:24 46.2 °F /  7.9 °C 43 °F /  6.1 °C 30.1in /  1018.8hPa Sur 3.1mph /  5km/h 5.8mph /  9.3km/h 88% 0in /  0.0mm
07:29 46.6 °F /  8.1 °C 43 °F /  6.1 °C 30.1in /  1018.8hPa Sur 3.1mph /  5km/h 6mph /  9.7km/h 87.6% 0in /  0.0mm
07:34 46.8 °F /  8.2 °C 43 °F /  6.1 °C 30.1in /  1018.9hPa Sur 3.1mph /  5km/h 5.8mph /  9.3km/h 87% 0in /  0.0mm
07:39 46.8 °F /  8.2 °C 43.2 °F /  6.2 °C 30.1in /  1018.9hPa SSE 3.1mph /  5km/h 6mph /  9.7km/h 86.8% 0in /  0.0mm
07:44 46.8 °F /  8.2 °C 42.8 °F /  6 °C 30.1in /  1018.9hPa SSE 3.1mph /  5km/h 6.9mph /  11.1km/h 86% 0in /  0.0mm
07:49 46.8 °F /  8.2 °C 43 °F /  6.1 °C 30.1in /  1018.9hPa SSE 3.6mph /  5.8km/h 7mph /  11.3km/h 86.4% 0in /  0.0mm
07:54 46.6 °F /  8.1 °C 43 °F /  6.1 °C 30.1in /  1018.9hPa SSE 4mph /  6.5km/h 7mph /  11.3km/h 87% 0in /  0.0mm
07:59 46.6 °F /  8.1 °C 43 °F /  6.1 °C 30.1in /  1018.9hPa SSE 4.2mph /  6.8km/h 7mph /  11.3km/h 87% 0in /  0.0mm
08:04 46.6 °F /  8.1 °C 43 °F /  6.1 °C 30.1in /  1018.9hPa SSE 4.3mph /  6.9km/h 7mph /  11.3km/h 87% 0in /  0.0mm
08:09 46.6 °F /  8.1 °C 43 °F /  6.1 °C 30.1in /  1018.8hPa SSE 4.3mph /  6.9km/h 6.9mph /  11.1km/h 87% 0in /  0.0mm
08:14 46.8 °F /  8.2 °C 43 °F /  6.1 °C 30.1in /  1018.8hPa SSE 4.3mph /  6.9km/h 8.1mph /  13km/h 87% 0in /  0.0mm
08:19 46.8 °F /  8.2 °C 43.2 °F /  6.2 °C 30.1in /  1018.9hPa SSE 4.5mph /  7.3km/h 8mph /  12.9km/h 87% 0in /  0.0mm
08:24 46.9 °F /  8.3 °C 43.3 °F /  6.3 °C 30.1in /  1018.9hPa Sur 4.7mph /  7.6km/h 7mph /  11.3km/h 87% 0in /  0.0mm
08:29 47.1 °F /  8.4 °C 43.2 °F /  6.2 °C 30.1in /  1018.9hPa Sur 4.5mph /  7.2km/h 8.1mph /  13km/h 86.3% 0in /  0.0mm
08:34 47.1 °F /  8.4 °C 43.2 °F /  6.2 °C 30.1in /  1019.0hPa Sur 4.3mph /  6.9km/h 8mph /  12.9km/h 86% 0in /  0.0mm
08:39 47.3 °F /  8.5 °C 43.3 °F /  6.3 °C 30.1in /  1019.0hPa SSO 4.5mph /  7.3km/h 7.4mph /  11.9km/h 86% 0in /  0.0mm
08:44 47.5 °F /  8.6 °C 43.3 °F /  6.3 °C 30.1in /  1019.0hPa SSO 4.7mph /  7.6km/h 7mph /  11.3km/h 85.4% 0in /  0.0mm
08:49 47.7 °F /  8.7 °C 43.3 °F /  6.3 °C 30.1in /  1019.0hPa SSO 4.7mph /  7.6km/h 7mph /  11.3km/h 85% 0in /  0.0mm
08:54 47.7 °F /  8.7 °C 43.3 °F /  6.3 °C 30.1in /  1019.0hPa SSO 4.7mph /  7.6km/h 7mph /  11.3km/h 85% 0in /  0.0mm
08:59 47.8 °F /  8.8 °C 43.5 °F /  6.4 °C 30.1in /  1019.0hPa SO 4.4mph /  7.1km/h 7mph /  11.3km/h 85% 0in /  0.0mm
09:04 47.8 °F /  8.8 °C 43.2 °F /  6.2 °C 30.1in /  1019.1hPa SO 4.3mph /  6.9km/h 6.2mph /  10km/h 84% 0in /  0.0mm
09:09 48 °F /  8.9 °C 43.3 °F /  6.3 °C 30.1in /  1019.1hPa SO 4.1mph /  6.6km/h 8.1mph /  13km/h 84% 0in /  0.0mm
09:14 48 °F /  8.9 °C 43.3 °F /  6.3 °C 30.1in /  1019.1hPa SO 4mph /  6.5km/h 8.1mph /  13km/h 83.5% 0in /  0.0mm
09:19 48.2 °F /  9 °C 43.3 °F /  6.3 °C 30.1in /  1019.2hPa OSO 4.2mph /  6.7km/h 8mph /  12.9km/h 83% 0in /  0.0mm
09:24 48.4 °F /  9.1 °C 43.3 °F /  6.3 °C 30.1in /  1019.2hPa SO 4.3mph /  6.9km/h 6.2mph /  10km/h 83% 0in /  0.0mm
09:29 48.4 °F /  9.1 °C 43.3 °F /  6.3 °C 30.1in /  1019.2hPa OSO 4.2mph /  6.7km/h 6.9mph /  11.1km/h 82.7% 0in /  0.0mm
09:34 48.4 °F /  9.1 °C 43.2 °F /  6.2 °C 30.1in /  1019.3hPa OSO 4mph /  6.5km/h 7mph /  11.3km/h 82% 0in /  0.0mm
09:39 48.6 °F /  9.2 °C 43.2 °F /  6.2 °C 30.1in /  1019.3hPa SO 4mph /  6.5km/h 7mph /  11.3km/h 82% 0in /  0.0mm
09:44 48.6 °F /  9.2 °C 43.3 °F /  6.3 °C 30.1in /  1019.3hPa OSO 4mph /  6.5km/h 7mph /  11.3km/h 82% 0in /  0.0mm
09:49 48.6 °F /  9.2 °C 43.3 °F /  6.3 °C 30.1in /  1019.5hPa SO 4mph /  6.5km/h 6.2mph /  10km/h 82% 0in /  0.0mm
09:54 48.6 °F /  9.2 °C 43.3 °F /  6.3 °C 30.1in /  1019.5hPa SO 4mph /  6.5km/h 6.2mph /  10km/h 81.9% 0in /  0.0mm
09:59 48.7 °F /  9.3 °C 43.3 °F /  6.3 °C 30.1in /  1019.5hPa SO 3.4mph /  5.5km/h 6mph /  9.7km/h 81.8% 0in /  0.0mm
10:04 48.7 °F /  9.3 °C 43.2 °F /  6.2 °C 30.1in /  1019.5hPa SSO 3.1mph /  5km/h 5.8mph /  9.3km/h 81.1% 0in /  0.0mm
10:09 48.7 °F /  9.3 °C 43.2 °F /  6.2 °C 30.1in /  1019.4hPa SSO 3.4mph /  5.5km/h 6.2mph /  10km/h 81% 0in /  0.0mm
10:14 48.6 °F /  9.2 °C 43 °F /  6.1 °C 30.1in /  1019.4hPa SSO 3.6mph /  5.8km/h 6mph /  9.7km/h 81% 0in /  0.0mm
10:19 48.6 °F /  9.2 °C 43 °F /  6.1 °C 30.1in /  1019.4hPa SSO 4mph /  6.5km/h 6.9mph /  11.1km/h 81% 0in /  0.0mm
10:24 48.6 °F /  9.2 °C 43 °F /  6.1 °C 30.1in /  1019.4hPa Sur 4.3mph /  6.9km/h 7mph /  11.3km/h 81% 0in /  0.0mm
10:29 48.6 °F /  9.2 °C 43 °F /  6.1 °C 30.1in /  1019.4hPa Sur 4.3mph /  6.9km/h 8.1mph /  13km/h 81% 0in /  0.0mm
10:34 48.7 °F /  9.3 °C 43.2 °F /  6.2 °C 30.1in /  1019.6hPa Sur 4.3mph /  6.9km/h 8mph /  12.9km/h 81% 0in /  0.0mm
10:39 48.7 °F /  9.3 °C 43.2 °F /  6.2 °C 30.1in /  1019.6hPa Sur 4.5mph /  7.3km/h 7.6mph /  12.2km/h 81% 0in /  0.0mm
10:44 48.7 °F /  9.3 °C 43.2 °F /  6.2 °C 30.1in /  1019.6hPa SSO 4.7mph /  7.6km/h 8mph /  12.9km/h 80.5% 0in /  0.0mm
10:49 48.9 °F /  9.4 °C 43.2 °F /  6.2 °C 30.1in /  1019.6hPa Sur 4.7mph /  7.6km/h 7mph /  11.3km/h 80.4% 0in /  0.0mm
10:54 49.3 °F /  9.6 °C 43.5 °F /  6.4 °C 30.1in /  1019.6hPa SSO 4.7mph /  7.6km/h 7mph /  11.3km/h 80.3% 0in /  0.0mm
10:59 49.8 °F /  9.9 °C 43.5 °F /  6.4 °C 30.1in /  1019.6hPa SO 4.2mph /  6.8km/h 8.5mph /  13.7km/h 78.6% 0in /  0.0mm
11:04 50.2 °F /  10.1 °C 43.5 °F /  6.4 °C 30.1in /  1019.6hPa OSO 4mph /  6.5km/h 9mph /  14.5km/h 78% 0in /  0.0mm
11:09 50.2 °F /  10.1 °C 43.3 °F /  6.3 °C 30.1in /  1019.5hPa OSO 4.7mph /  7.6km/h 9.2mph /  14.8km/h 77.3% 0in /  0.0mm
11:14 50.2 °F /  10.1 °C 43.5 °F /  6.4 °C 30.1in /  1019.5hPa OSO 5.2mph /  8.4km/h 9.2mph /  14.8km/h 78% 0in /  0.0mm
11:19 50.4 °F /  10.2 °C 43.7 °F /  6.5 °C 30.1in /  1019.5hPa OSO 5.6mph /  9km/h 9mph /  14.5km/h 78% 0in /  0.0mm
11:24 50.5 °F /  10.3 °C 43.9 °F /  6.6 °C 30.1in /  1019.3hPa OSO 5.9mph /  9.5km/h 8mph /  12.9km/h 78% 0in /  0.0mm
11:29 51.1 °F /  10.6 °C 44.1 °F /  6.7 °C 30.1in /  1019.3hPa SO 4.5mph /  7.3km/h 7mph /  11.3km/h 76.7% 0in /  0.0mm
11:34 51.4 °F /  10.8 °C 44.1 °F /  6.7 °C 30.1in /  1019.3hPa SSO 3.6mph /  5.8km/h 8.1mph /  13km/h 76% 0in /  0.0mm
11:39 51.6 °F /  10.9 °C 44.2 °F /  6.8 °C 30.1in /  1019.3hPa SO 3.6mph /  5.8km/h 8.1mph /  13km/h 75.9% 0in /  0.0mm
11:44 52 °F /  11.1 °C 44.1 °F /  6.7 °C 30.1in /  1019.3hPa SSO 3.6mph /  5.8km/h 8.1mph /  13km/h 74.6% 0in /  0.0mm
11:49 52.2 °F /  11.2 °C 44.1 °F /  6.7 °C 30.1in /  1019.3hPa SO 3.3mph /  5.3km/h 8.1mph /  13km/h 74% 0in /  0.0mm
11:54 52.2 °F /  11.2 °C 44.1 °F /  6.7 °C 30.1in /  1019.1hPa Oeste 3.1mph /  5km/h 8mph /  12.9km/h 74% 0in /  0.0mm
11:59 52.2 °F /  11.2 °C 44.2 °F /  6.8 °C 30.1in /  1019.1hPa Oeste 3.5mph /  5.6km/h 6mph /  9.7km/h 74.3% 0in /  0.0mm
12:04 52.3 °F /  11.3 °C 44.2 °F /  6.8 °C 30.1in /  1019.1hPa Oeste 3.6mph /  5.8km/h 6.9mph /  11.1km/h 74% 0in /  0.0mm
12:09 52.7 °F /  11.5 °C 44.6 °F /  7 °C 30.1in /  1019.0hPa SO 3.2mph /  5.1km/h 7mph /  11.3km/h 74% 0in /  0.0mm
12:14 53.2 °F /  11.8 °C 44.8 °F /  7.1 °C 30.1in /  1019.0hPa SO 2.9mph /  4.6km/h 6mph /  9.7km/h 73% 0in /  0.0mm
12:19 53.6 °F /  12 °C 45.1 °F /  7.3 °C 30.1in /  1019.0hPa SO 2.4mph /  3.8km/h 7.4mph /  11.9km/h 72.7% 0in /  0.0mm
12:24 54 °F /  12.2 °C 44.8 °F /  7.1 °C 30.1in /  1018.8hPa ONO 2mph /  3.2km/h 7mph /  11.3km/h 71.2% 0in /  0.0mm
12:29 54.1 °F /  12.3 °C 44.8 °F /  7.1 °C 30.1in /  1018.8hPa Oeste 2.7mph /  4.3km/h 6.9mph /  11.1km/h 71% 0in /  0.0mm
12:34 54.1 °F /  12.3 °C 45 °F /  7.2 °C 30.1in /  1018.8hPa SO 3.1mph /  5km/h 7.4mph /  11.9km/h 71% 0in /  0.0mm
12:39 54.1 °F /  12.3 °C 45 °F /  7.2 °C 30.1in /  1018.5hPa SO 3.6mph /  5.8km/h 7mph /  11.3km/h 71% 0in /  0.0mm
12:44 54.5 °F /  12.5 °C 45.3 °F /  7.4 °C 30.1in /  1018.5hPa OSO 4mph /  6.5km/h 7mph /  11.3km/h 71% 0in /  0.0mm
12:49 54.9 °F /  12.7 °C 45.3 °F /  7.4 °C 30.1in /  1018.5hPa Oeste 3.5mph /  5.6km/h 6mph /  9.7km/h 70% 0in /  0.0mm
12:54 55 °F /  12.8 °C 45.3 °F /  7.4 °C 30.1in /  1018.1hPa Oeste 3.1mph /  5km/h 6mph /  9.7km/h 69.8% 0in /  0.0mm
12:59 55.2 °F /  12.9 °C 45.5 °F /  7.5 °C 30.1in /  1018.1hPa Oeste 2.7mph /  4.3km/h 6.9mph /  11.1km/h 69.4% 0in /  0.0mm
13:04 55.8 °F /  13.2 °C 45.5 °F /  7.5 °C 30.1in /  1018.1hPa SSO 2.4mph /  3.9km/h 7.4mph /  11.9km/h 68.5% 0in /  0.0mm
13:09 55.9 °F /  13.3 °C 45.5 °F /  7.5 °C 30.1in /  1017.8hPa SO 3.3mph /  5.3km/h 7.4mph /  11.9km/h 68% 0in /  0.0mm
13:14 55.9 °F /  13.3 °C 45.5 °F /  7.5 °C 30.1in /  1017.8hPa SSO 4mph /  6.5km/h 7mph /  11.3km/h 67.8% 0in /  0.0mm
13:19 56.1 °F /  13.4 °C 45.3 °F /  7.4 °C 30.1in /  1017.8hPa SO 3.8mph /  6.1km/h 6.2mph /  10km/h 67.2% 0in /  0.0mm
13:24 56.3 °F /  13.5 °C 45.5 °F /  7.5 °C 30.1in /  1017.5hPa SSO 3.6mph /  5.8km/h 6mph /  9.7km/h 67% 0in /  0.0mm
13:29 56.7 °F /  13.7 °C 45.7 °F /  7.6 °C 30.1in /  1017.5hPa Sur 3.3mph /  5.3km/h 6.9mph /  11.1km/h 66.3% 0in /  0.0mm
13:34 56.8 °F /  13.8 °C 45.7 °F /  7.6 °C 30.1in /  1017.5hPa SSO 3.1mph /  5km/h 7.4mph /  11.9km/h 66% 0in /  0.0mm
13:39 57 °F /  13.9 °C 45.7 °F /  7.6 °C 30in /  1017.2hPa OSO 3.9mph /  6.2km/h 7mph /  11.3km/h 65.4% 0in /  0.0mm
13:44 57.4 °F /  14.1 °C 45.3 °F /  7.4 °C 30in /  1017.2hPa OSO 4.3mph /  6.9km/h 8.1mph /  13km/h 64.4% 0in /  0.0mm
13:49 57.4 °F /  14.1 °C 45.5 °F /  7.5 °C 30in /  1017.2hPa OSO 4.3mph /  6.9km/h 8.1mph /  13km/h 64.3% 0in /  0.0mm
13:54 57.7 °F /  14.3 °C 45.5 °F /  7.5 °C 30in /  1016.9hPa Oeste 4.3mph /  6.9km/h 8mph /  12.9km/h 63.6% 0in /  0.0mm
13:59 57.9 °F /  14.4 °C 45.3 °F /  7.4 °C 30in /  1016.9hPa SO 3.5mph /  5.6km/h 6.2mph /  10km/h 63% 0in /  0.0mm
14:04 58.3 °F /  14.6 °C 45.5 °F /  7.5 °C 30in /  1016.9hPa SSO 3.1mph /  5km/h 8.1mph /  13km/h 62.4% 0in /  0.0mm
14:09 58.3 °F /  14.6 °C 45.3 °F /  7.4 °C 30in /  1016.7hPa SSO 3.8mph /  6.1km/h 8mph /  12.9km/h 62% 0in /  0.0mm
14:14 58.5 °F /  14.7 °C 45.3 °F /  7.4 °C 30in /  1016.7hPa Oeste 4.3mph /  6.9km/h 8.5mph /  13.7km/h 61.4% 0in /  0.0mm
14:19 58.6 °F /  14.8 °C 45.3 °F /  7.4 °C 30in /  1016.7hPa OSO 4.3mph /  6.9km/h 9mph /  14.5km/h 61.2% 0in /  0.0mm
14:24 58.6 °F /  14.8 °C 45.1 °F /  7.3 °C 30in /  1016.4hPa Oeste 4.3mph /  6.9km/h 9mph /  14.5km/h 61% 0in /  0.0mm
14:29 58.6 °F /  14.8 °C 45 °F /  7.2 °C 30in /  1016.4hPa Oeste 3.9mph /  6.3km/h 9.2mph /  14.8km/h 60.1% 0in /  0.0mm
14:34 59.2 °F /  15.1 °C 44.6 °F /  7 °C 30in /  1016.4hPa Oeste 3.6mph /  5.8km/h 9mph /  14.5km/h 58.4% 0in /  0.0mm
14:39 59.4 °F /  15.2 °C 45 °F /  7.2 °C 30in /  1016.2hPa OSO 4mph /  6.5km/h 8.1mph /  13km/h 59% 0in /  0.0mm
14:44 59.5 °F /  15.3 °C 45.1 °F /  7.3 °C 30in /  1016.2hPa OSO 4.3mph /  6.9km/h 8mph /  12.9km/h 58.9% 0in /  0.0mm
14:49 59.9 °F /  15.5 °C 45 °F /  7.2 °C 30in /  1016.2hPa SO 3mph /  4.8km/h 6.2mph /  10km/h 57.8% 0in /  0.0mm
14:54 60.3 °F /  15.7 °C 44.4 °F /  6.9 °C 30in /  1016.0hPa OSO 2mph /  3.2km/h 6.9mph /  11.1km/h 55.8% 0in /  0.0mm
14:59 60.4 °F /  15.8 °C 44.1 °F /  6.7 °C 30in /  1016.0hPa SO 2.7mph /  4.4km/h 8.1mph /  13km/h 54.7% 0in /  0.0mm
15:04 60.6 °F /  15.9 °C 43.7 °F /  6.5 °C 30in /  1016.0hPa OSO 3.1mph /  5km/h 8mph /  12.9km/h 53.6% 0in /  0.0mm
15:09 60.6 °F /  15.9 °C 43 °F /  6.1 °C 30in /  1015.8hPa SSO 3.1mph /  5km/h 6mph /  9.7km/h 52.3% 0in /  0.0mm
15:14 60.6 °F /  15.9 °C 42.4 °F /  5.8 °C 30in /  1015.8hPa SSE 3.1mph /  5km/h 6mph /  9.7km/h 51.1% 0in /  0.0mm
15:19 60.8 °F /  16 °C 42.6 °F /  5.9 °C 30in /  1015.8hPa SO 3.4mph /  5.4km/h 6.2mph /  10km/h 51% 0in /  0.0mm
15:24 61.2 °F /  16.2 °C 42.8 °F /  6 °C 30in /  1015.7hPa SSE 3.6mph /  5.8km/h 7.4mph /  11.9km/h 50.9% 0in /  0.0mm
15:29 61.2 °F /  16.2 °C 42.8 °F /  6 °C 30in /  1015.7hPa Sur 3.6mph /  5.8km/h 7mph /  11.3km/h 50.9% 0in /  0.0mm
15:34 61.2 °F /  16.2 °C 42.6 °F /  5.9 °C 30in /  1015.7hPa Sur 3.6mph /  5.8km/h 6mph /  9.7km/h 50.6% 0in /  0.0mm
15:39 61.3 °F /  16.3 °C 43 °F /  6.1 °C 30in /  1015.7hPa SSO 3.3mph /  5.3km/h 7.4mph /  11.9km/h 51% 0in /  0.0mm
15:44 61.3 °F /  16.3 °C 43 °F /  6.1 °C 30in /  1015.7hPa SO 3.1mph /  5km/h 8.5mph /  13.7km/h 51% 0in /  0.0mm
15:49 61.3 °F /  16.3 °C 43.2 °F /  6.2 °C 30in /  1015.7hPa SO 3.8mph /  6.1km/h 9mph /  14.5km/h 51% 0in /  0.0mm
15:54 61.5 °F /  16.4 °C 43 °F /  6.1 °C 30in /  1015.6hPa SO 4.3mph /  6.9km/h 8.1mph /  13km/h 50.7% 0in /  0.0mm
15:59 61.7 °F /  16.5 °C 43.2 °F /  6.2 °C 30in /  1015.6hPa Oeste 3.5mph /  5.7km/h 7mph /  11.3km/h 50.5% 0in /  0.0mm
16:04 61.9 °F /  16.6 °C 43.3 °F /  6.3 °C 30in /  1015.6hPa OSO 3.1mph /  5km/h 7.4mph /  11.9km/h 50.6% 0in /  0.0mm
16:09 61.9 °F /  16.6 °C 43 °F /  6.1 °C 30in /  1015.5hPa SSO 3.1mph /  5km/h 7mph /  11.3km/h 50% 0in /  0.0mm
16:14 61.7 °F /  16.5 °C 42.8 °F /  6 °C 30in /  1015.5hPa ESE 3.1mph /  5km/h 6mph /  9.7km/h 50% 0in /  0.0mm
16:19 61.5 °F /  16.4 °C 42.8 °F /  6 °C 30in /  1015.5hPa ESE 2.7mph /  4.3km/h 6mph /  9.7km/h 50.1% 0in /  0.0mm
16:24 61.5 °F /  16.4 °C 42.6 °F /  5.9 °C 30in /  1015.4hPa SE 2.4mph /  3.9km/h 5mph /  8km/h 50% 0in /  0.0mm
16:29 61.7 °F /  16.5 °C 42.8 °F /  6 °C 30in /  1015.4hPa SE 2.2mph /  3.5km/h 4.3mph /  6.9km/h 50% 0in /  0.0mm
16:34 62.1 °F /  16.7 °C 43 °F /  6.1 °C 30in /  1015.4hPa SO 2mph /  3.2km/h 5.9mph /  9.5km/h 49.4% 0in /  0.0mm
16:39 62.2 °F /  16.8 °C 42.8 °F /  6 °C 30in /  1015.3hPa SSO 2.5mph /  4.1km/h 6mph /  9.7km/h 49% 0in /  0.0mm
16:44 62.2 °F /  16.8 °C 42.4 °F /  5.8 °C 30in /  1015.3hPa SSO 2.9mph /  4.6km/h 5mph /  8km/h 48.3% 0in /  0.0mm
16:49 62.2 °F /  16.8 °C 42.6 °F /  5.9 °C 30in /  1015.3hPa SSE 2.9mph /  4.7km/h 5.8mph /  9.3km/h 48.5% 0in /  0.0mm
16:54 62.4 °F /  16.9 °C 43 °F /  6.1 °C 30in /  1015.2hPa SSE 2.9mph /  4.7km/h 6mph /  9.7km/h 49% 0in /  0.0mm
16:59 62.6 °F /  17 °C 42.6 °F /  5.9 °C 30in /  1015.2hPa Sur 2.2mph /  3.5km/h 4.7mph /  7.6km/h 48% 0in /  0.0mm
17:04 62.6 °F /  17 °C 42.6 °F /  5.9 °C 30in /  1015.2hPa SSO 1.8mph /  2.9km/h 5mph /  8km/h 48% 0in /  0.0mm
17:09 62.4 °F /  16.9 °C 42.4 °F /  5.8 °C 30in /  1015.1hPa OSO 2.4mph /  3.9km/h 5mph /  8km/h 48% 0in /  0.0mm
17:14 62.4 °F /  16.9 °C 42.4 °F /  5.8 °C 30in /  1015.1hPa OSO 2.9mph /  4.7km/h 5mph /  8km/h 48% 0in /  0.0mm
17:19 62.6 °F /  17 °C 42.4 °F /  5.8 °C 30in /  1015.1hPa OSO 1.2mph /  1.9km/h 2mph /  3.2km/h 47.6% 0in /  0.0mm
17:24 63 °F /  17.2 °C 42.6 °F /  5.9 °C 30in /  1015.0hPa Calm     47.3% 0in /  0.0mm
17:29 63.1 °F /  17.3 °C 42.6 °F /  5.9 °C 30in /  1015.0hPa Calm     47% 0in /  0.0mm
17:34 63.1 °F /  17.3 °C 42.4 °F /  5.8 °C 30in /  1015.0hPa Calm   2.9mph /  4.7km/h 47% 0in /  0.0mm
17:39 63 °F /  17.2 °C 42.3 °F /  5.7 °C 30in /  1014.9hPa OSO 0.8mph /  1.3km/h 3mph /  4.8km/h 47% 0in /  0.0mm
17:44 62.8 °F /  17.1 °C 42.3 °F /  5.7 °C 30in /  1014.9hPa OSO 1.4mph /  2.2km/h 2mph /  3.2km/h 47% 0in /  0.0mm
17:49 62.8 °F /  17.1 °C 42.3 °F /  5.7 °C 30in /  1014.9hPa OSO 0.8mph /  1.3km/h 3.1mph /  5km/h 47% 0in /  0.0mm
17:54 62.6 °F /  17 °C 42.3 °F /  5.7 °C 30in /  1014.8hPa Calm   3.6mph /  5.8km/h 47.2% 0in /  0.0mm
17:59 62.1 °F /  16.7 °C 42.3 °F /  5.7 °C 30in /  1014.8hPa Este 1.2mph /  1.9km/h 4.6mph /  7.4km/h 48.3% 0in /  0.0mm
18:04 61.3 °F /  16.3 °C 42.3 °F /  5.7 °C 30in /  1014.8hPa Este 1.8mph /  2.9km/h 6.2mph /  10km/h 49.5% 0in /  0.0mm
18:09 60.6 °F /  15.9 °C 42.6 °F /  5.9 °C 30in /  1014.8hPa ESE 2.4mph /  3.9km/h 6.9mph /  11.1km/h 51.5% 0in /  0.0mm
18:14 59.7 °F /  15.4 °C 43.7 °F /  6.5 °C 30in /  1014.8hPa ESE 2.9mph /  4.7km/h 7.6mph /  12.2km/h 55.6% 0in /  0.0mm
18:19 58.8 °F /  14.9 °C 44.6 °F /  7 °C 30in /  1014.9hPa ESE 3.9mph /  6.3km/h 8.1mph /  13km/h 59.1% 0in /  0.0mm
18:24 58.3 °F /  14.6 °C 45.1 °F /  7.3 °C 30in /  1014.9hPa ESE 4.7mph /  7.6km/h 7mph /  11.3km/h 61.7% 0in /  0.0mm
18:29 57.7 °F /  14.3 °C 45.3 °F /  7.4 °C 30in /  1014.9hPa SE 4.5mph /  7.2km/h 7mph /  11.3km/h 63.4% 0in /  0.0mm
18:34 57.4 °F /  14.1 °C 45.3 °F /  7.4 °C 30in /  1014.9hPa SE 4.3mph /  6.9km/h 6mph /  9.7km/h 64.1% 0in /  0.0mm
18:39 57.2 °F /  14 °C 45.5 °F /  7.5 °C 30in /  1014.9hPa SE 3.9mph /  6.3km/h 5mph /  8km/h 65% 0in /  0.0mm
18:44 57 °F /  13.9 °C 45.3 °F /  7.4 °C 30in /  1014.9hPa SE 3.6mph /  5.8km/h 5mph /  8km/h 65% 0in /  0.0mm
18:49 56.8 °F /  13.8 °C 45.3 °F /  7.4 °C 30in /  1015.0hPa SE 2.9mph /  4.7km/h 5mph /  8km/h 65% 0in /  0.0mm
18:54 56.8 °F /  13.8 °C 45.3 °F /  7.4 °C 30in /  1015.0hPa SE 2.4mph /  3.9km/h 4.6mph /  7.4km/h 65.4% 0in /  0.0mm
18:59 56.7 °F /  13.7 °C 45.5 °F /  7.5 °C 30in /  1015.0hPa SE 2.1mph /  3.4km/h 5mph /  8km/h 66% 0in /  0.0mm
19:04 56.7 °F /  13.7 °C 45.9 °F /  7.7 °C 30in /  1015.1hPa SE 2mph /  3.2km/h 4.6mph /  7.4km/h 67% 0in /  0.0mm
19:09 56.7 °F /  13.7 °C 45.9 °F /  7.7 °C 30in /  1015.1hPa SE 2.2mph /  3.6km/h 5mph /  8km/h 67.3% 0in /  0.0mm
19:14 56.7 °F /  13.7 °C 46.2 °F /  7.9 °C 30in /  1015.1hPa SSE 2.4mph /  3.9km/h 5mph /  8km/h 68% 0in /  0.0mm
19:19 56.7 °F /  13.7 °C 46.6 °F /  8.1 °C 30in /  1015.2hPa SO 2.4mph /  3.9km/h 5.2mph /  8.4km/h 68.9% 0in /  0.0mm
19:24 56.7 °F /  13.7 °C 46.9 °F /  8.3 °C 30in /  1015.2hPa Oeste 2.4mph /  3.9km/h 5.4mph /  8.7km/h 70.2% 0in /  0.0mm
19:29 56.3 °F /  13.5 °C 47.1 °F /  8.4 °C 30in /  1015.2hPa Oeste 2.8mph /  4.5km/h 6mph /  9.7km/h 71% 0in /  0.0mm
19:34 55.9 °F /  13.3 °C 46.8 °F /  8.2 °C 30in /  1015.4hPa Oeste 3.1mph /  5km/h 5mph /  8km/h 71.1% 0in /  0.0mm
19:39 55.8 °F /  13.2 °C 46.9 °F /  8.3 °C 30in /  1015.4hPa Oeste 2.4mph /  3.8km/h 4.3mph /  6.9km/h 72.2% 0in /  0.0mm
19:44 55.8 °F /  13.2 °C 47.1 °F /  8.4 °C 30in /  1015.4hPa SO 1.8mph /  2.9km/h 5.2mph /  8.4km/h 73% 0in /  0.0mm
19:49 55.6 °F /  13.1 °C 47.1 °F /  8.4 °C 30in /  1015.5hPa SSO 2.2mph /  3.5km/h 5.2mph /  8.4km/h 73.3% 0in /  0.0mm
19:54 55.6 °F /  13.1 °C 47.3 °F /  8.5 °C 30in /  1015.5hPa SO 2.4mph /  3.9km/h 5mph /  8km/h 74% 0in /  0.0mm
19:59 55.4 °F /  13 °C 47.7 °F /  8.7 °C 30in /  1015.5hPa SO 2.7mph /  4.4km/h 5mph /  8km/h 74.8% 0in /  0.0mm
20:04 55.4 °F /  13 °C 47.8 °F /  8.8 °C 30in /  1015.6hPa SO 2.9mph /  4.6km/h 8.1mph /  13km/h 75.8% 0in /  0.0mm
20:09 55.2 °F /  12.9 °C 47.8 °F /  8.8 °C 30in /  1015.6hPa SO 3.3mph /  5.3km/h 8mph /  12.9km/h 76.4% 0in /  0.0mm
20:14 55 °F /  12.8 °C 48 °F /  8.9 °C 30in /  1015.6hPa OSO 3.6mph /  5.8km/h 7mph /  11.3km/h 77% 0in /  0.0mm
20:19 54.9 °F /  12.7 °C 48.2 °F /  9 °C 30in /  1015.6hPa OSO 3.6mph /  5.8km/h 7mph /  11.3km/h 77.9% 0in /  0.0mm
20:24 54.9 °F /  12.7 °C 48 °F /  8.9 °C 30in /  1015.6hPa OSO 3.6mph /  5.8km/h 7.4mph /  11.9km/h 78% 0in /  0.0mm
20:29 54.7 °F /  12.6 °C 48.2 °F /  9 °C 30in /  1015.6hPa OSO 3.3mph /  5.3km/h 7mph /  11.3km/h 78.9% 0in /  0.0mm
20:34 54.3 °F /  12.4 °C 48 °F /  8.9 °C 30in /  1015.6hPa OSO 3.1mph /  5km/h 5.2mph /  8.4km/h 79% 0in /  0.0mm
20:39 54.3 °F /  12.4 °C 48.2 °F /  9 °C 30in /  1015.6hPa SO 3mph /  4.8km/h 6.2mph /  10km/h 79.8% 0in /  0.0mm
20:44 54.1 °F /  12.3 °C 48.2 °F /  9 °C 30in /  1015.6hPa SO 2.9mph /  4.7km/h 6mph /  9.7km/h 80% 0in /  0.0mm
20:49 54.1 °F /  12.3 °C 48 °F /  8.9 °C 30in /  1015.6hPa SO 2.6mph /  4.2km/h 5mph /  8km/h 80% 0in /  0.0mm
20:54 54.1 °F /  12.3 °C 48 °F /  8.9 °C 30in /  1015.6hPa SO 2.4mph /  3.9km/h 4mph /  6.4km/h 80% 0in /  0.0mm
20:59 54 °F /  12.2 °C 48 °F /  8.9 °C 30in /  1015.6hPa SO 1.7mph /  2.8km/h 3.6mph /  5.8km/h 80.3% 0in /  0.0mm
21:04 54 °F /  12.2 °C 48.4 °F /  9.1 °C 30in /  1015.7hPa SO 1.4mph /  2.2km/h 7.4mph /  11.9km/h 81% 0in /  0.0mm
21:09 53.8 °F /  12.1 °C 48.2 °F /  9 °C 30in /  1015.7hPa SO 2.3mph /  3.7km/h 7mph /  11.3km/h 81.1% 0in /  0.0mm
21:14 53.8 °F /  12.1 °C 48.4 °F /  9.1 °C 30in /  1015.7hPa SO 2.9mph /  4.7km/h 5mph /  8km/h 81.8% 0in /  0.0mm
21:19 53.8 °F /  12.1 °C 48.4 °F /  9.1 °C 30in /  1015.8hPa SO 2.6mph /  4.2km/h 5mph /  8km/h 82% 0in /  0.0mm
21:24 53.6 °F /  12 °C 48.2 °F /  9 °C 30in /  1015.8hPa SO 2.4mph /  3.9km/h 2.3mph /  3.7km/h 82% 0in /  0.0mm
21:29 53.4 °F /  11.9 °C 47.8 °F /  8.8 °C 30in /  1015.8hPa SO 1.1mph /  1.7km/h 2mph /  3.2km/h 81.2% 0in /  0.0mm
21:34 53.2 °F /  11.8 °C 47.7 °F /  8.7 °C 30in /  1015.9hPa Calm   2.4mph /  3.9km/h 81% 0in /  0.0mm
21:39 53.1 °F /  11.7 °C 47.5 °F /  8.6 °C 30in /  1015.9hPa Calm   2.4mph /  3.9km/h 81% 0in /  0.0mm
21:44 52.7 °F /  11.5 °C 47.1 °F /  8.4 °C 30in /  1015.9hPa Calm   3.5mph /  5.6km/h 81.5% 0in /  0.0mm
21:49 52.3 °F /  11.3 °C 46.9 °F /  8.3 °C 30in /  1016.1hPa SO 1.1mph /  1.7km/h 3mph /  4.8km/h 82% 0in /  0.0mm
21:54 52.2 °F /  11.2 °C 47.1 °F /  8.4 °C 30in /  1016.1hPa SO 1.8mph /  2.9km/h 3mph /  4.8km/h 83% 0in /  0.0mm
21:59 52 °F /  11.1 °C 46.9 °F /  8.3 °C 30in /  1016.1hPa SO 0.6mph /  1km/h 2.9mph /  4.7km/h 83% 0in /  0.0mm
22:04 51.6 °F /  10.9 °C 46.6 °F /  8.1 °C 30in /  1016.2hPa Calm   3mph /  4.8km/h 83.2% 0in /  0.0mm
22:09 51.6 °F /  10.9 °C 46.9 °F /  8.3 °C 30in /  1016.2hPa SO 1.1mph /  1.7km/h 4.3mph /  6.9km/h 84% 0in /  0.0mm
22:14 51.4 °F /  10.8 °C 46.8 °F /  8.2 °C 30in /  1016.2hPa SO 1.8mph /  2.9km/h 5mph /  8km/h 84% 0in /  0.0mm
22:19 51.3 °F /  10.7 °C 46.8 °F /  8.2 °C 30in /  1016.2hPa Sur 2.5mph /  4.1km/h 6.2mph /  10km/h 84.7% 0in /  0.0mm
22:24 51.3 °F /  10.7 °C 46.9 °F /  8.3 °C 30in /  1016.2hPa Sur 3.1mph /  5km/h 6.9mph /  11.1km/h 85% 0in /  0.0mm
22:29 51.3 °F /  10.7 °C 46.9 °F /  8.3 °C 30in /  1016.2hPa SSO 3.8mph /  6.1km/h 7mph /  11.3km/h 85.5% 0in /  0.0mm
22:34 51.3 °F /  10.7 °C 47.1 °F /  8.4 °C 30in /  1016.4hPa SO 4.3mph /  6.9km/h 6mph /  9.7km/h 86% 0in /  0.0mm
22:39 51.3 °F /  10.7 °C 47.1 °F /  8.4 °C 30in /  1016.4hPa SSO 4.2mph /  6.7km/h 6.9mph /  11.1km/h 85.4% 0in /  0.0mm
22:44 51.3 °F /  10.7 °C 46.9 °F /  8.3 °C 30in /  1016.4hPa SSO 4mph /  6.5km/h 7mph /  11.3km/h 85% 0in /  0.0mm
22:49 51.3 °F /  10.7 °C 46.8 °F /  8.2 °C 30in /  1016.5hPa Sur 4.2mph /  6.7km/h 7.4mph /  11.9km/h 85% 0in /  0.0mm
22:54 51.1 °F /  10.6 °C 46.6 °F /  8.1 °C 30in /  1016.5hPa SSO 4.3mph /  6.9km/h 7mph /  11.3km/h 84.7% 0in /  0.0mm
22:59 51.1 °F /  10.6 °C 46.6 °F /  8.1 °C 30in /  1016.5hPa SO 4.1mph /  6.6km/h 7mph /  11.3km/h 84.5% 0in /  0.0mm
23:04 51.1 °F /  10.6 °C 46.8 °F /  8.2 °C 30in /  1016.5hPa SSO 4mph /  6.5km/h 5.9mph /  9.5km/h 85% 0in /  0.0mm
23:09 51.1 °F /  10.6 °C 46.4 °F /  8 °C 30in /  1016.5hPa SSO 3.8mph /  6.1km/h 6.2mph /  10km/h 84.1% 0in /  0.0mm
23:14 51.1 °F /  10.6 °C 46.4 °F /  8 °C 30in /  1016.5hPa SO 3.6mph /  5.8km/h 6mph /  9.7km/h 84% 0in /  0.0mm
23:19 51.1 °F /  10.6 °C 46.4 °F /  8 °C 30in /  1016.5hPa SO 3.9mph /  6.2km/h 7.4mph /  11.9km/h 84% 0in /  0.0mm
23:24 50.9 °F /  10.5 °C 46.2 °F /  7.9 °C 30in /  1016.5hPa SO 4mph /  6.5km/h 7.4mph /  11.9km/h 84% 0in /  0.0mm
23:29 50.7 °F /  10.4 °C 46.2 °F /  7.9 °C 30in /  1016.5hPa SO 4mph /  6.5km/h 7mph /  11.3km/h 84.1% 0in /  0.0mm
23:34 50.7 °F /  10.4 °C 46.4 °F /  8 °C 30in /  1016.5hPa SO 4mph /  6.5km/h 6.9mph /  11.1km/h 85% 0in /  0.0mm
23:39 50.5 °F /  10.3 °C 46.2 °F /  7.9 °C 30in /  1016.5hPa OSO 4.2mph /  6.7km/h 7mph /  11.3km/h 85% 0in /  0.0mm
23:44 50.5 °F /  10.3 °C 46.2 °F /  7.9 °C 30in /  1016.5hPa OSO 4.3mph /  6.9km/h 5.2mph /  8.4km/h 85% 0in /  0.0mm
23:49 50.4 °F /  10.2 °C 46 °F /  7.8 °C 30in /  1016.5hPa OSO 3.9mph /  6.3km/h 7.6mph /  12.2km/h 85% 0in /  0.0mm
23:54 50.4 °F /  10.2 °C 46 °F /  7.8 °C 30in /  1016.4hPa OSO 3.6mph /  5.8km/h 8.1mph /  13km/h 85% 0in /  0.0mm
23:59 50.4 °F /  10.2 °C 46.2 °F /  7.9 °C 30in /  1016.4hPa OSO 4.6mph /  7.4km/h 8.1mph /  13km/h 85.6% 0in /  0.0mm
Murcia-Puente Tocinos, España
Compliments of Weather Underground - 3 mb

La estación de MeteoMurcia.com, publica sus datos en los siguientes proyectos:

Weather Underground PWS IMURCIAP2 Meteoclimatic www.awekas.at

W3Counter
Web Analytics